Kings Creek, North Carolina
Current Conditions -  °F | °C
As of 12:15 PM on Friday 19 Dec 2014 (Local Time) from KMRN Reporting Station
Clear Clear  
Wind Chill: 52°   Ceiling: Unl
Heat Index: 52°   Visibility: 10mi
Dew Point: 28°   Wind: 0mph
Humidity: 40%   Direction: NA
Pressure: 30.16"   Gusts: NA
Location:  35.9726°N, 81.5331°W
Report Text: KMRN 191715Z AUTO 00000KT 10SM CLR 11/M02 A3016 RMK AO2 T01101022
Loading
Personal Weather Stations






























Interactive Weather Map New forecast layout! Learn more

10-Day Weather Forecast

Advertisements
Track Severe Weather on mobile